Time;durP1;ratioP1;P1;durP2;ratioP2;P2;SDS_P1;SDS_P2;PMS_P1;PMS_P2;Temp;Humidity;BMP_temperature;BMP_pressure;BME280_temperature;BME280_humidity;BME280_pressure;Samples;Min_cycle;Max_cycle;Signal;HPM_P1;HPM_P2
2023/10/31 00:01:21;;;;;;;8.25;2.10;;;11.50;99.90;;;;;;5073500;28;20044;-47
2023/10/31 00:03:47;;;;;;;7.72;1.80;;;11.60;99.90;;;;;;5073476;28;20070;-47
2023/10/31 00:06:12;;;;;;;5.25;2.03;;;11.50;99.90;;;;;;5072992;28;20379;-48
2023/10/31 00:08:38;;;;;;;6.05;1.70;;;11.50;99.90;;;;;;5073150;28;20600;-46
2023/10/31 00:11:04;;;;;;;5.43;1.45;;;11.50;99.90;;;;;;5071788;28;20036;-48
2023/10/31 00:13:29;;;;;;;7.43;1.80;;;11.50;99.90;;;;;;5072789;28;20052;-48
2023/10/31 00:15:55;;;;;;;2.60;1.40;;;11.50;99.90;;;;;;5073117;28;20402;-46
2023/10/31 00:18:21;;;;;;;6.35;1.40;;;11.40;99.90;;;;;;5072794;28;20493;-47
2023/10/31 00:20:47;;;;;;;6.53;1.10;;;11.50;99.90;;;;;;5071887;28;20554;-45
2023/10/31 00:23:13;;;;;;;5.30;1.25;;;11.50;99.90;;;;;;5072660;28;20449;-47
2023/10/31 00:25:39;;;;;;;5.40;1.30;;;11.40;99.90;;;;;;5072773;28;20482;-45
2023/10/31 00:28:05;;;;;;;5.13;1.50;;;11.40;99.90;;;;;;5072685;28;20044;-46
2023/10/31 00:30:30;;;;;;;3.53;1.60;;;11.40;99.90;;;;;;5072076;28;20471;-46
2023/10/31 00:32:56;;;;;;;7.28;1.70;;;11.40;99.90;;;;;;5072621;28;20553;-46
2023/10/31 00:35:22;;;;;;;8.48;1.98;;;11.30;99.90;;;;;;5072334;28;20044;-47
2023/10/31 00:37:47;;;;;;;5.13;1.58;;;11.40;99.90;;;;;;5072802;28;20036;-46
2023/10/31 00:40:14;;;;;;;4.72;1.45;;;11.40;99.90;;;;;;5063026;28;20061;-50
2023/10/31 00:42:41;;;;;;;5.65;1.65;;;11.40;99.90;;;;;;5052606;28;20059;-45
2023/10/31 00:45:08;;;;;;;5.75;1.58;;;11.30;99.90;;;;;;5052626;28;20426;-51
2023/10/31 00:47:34;;;;;;;3.78;1.60;;;11.30;99.90;;;;;;5052599;28;20106;-47
2023/10/31 00:50:00;;;;;;;4.82;1.80;;;11.20;99.90;;;;;;5052307;28;20080;-50
2023/10/31 00:52:26;;;;;;;5.07;1.83;;;11.40;99.90;;;;;;5052500;28;20079;-46
2023/10/31 00:54:51;;;;;;;4.07;1.70;;;11.40;99.90;;;;;;5052239;28;20041;-45
2023/10/31 00:57:17;;;;;;;5.05;1.60;;;11.40;99.90;;;;;;5052246;28;20032;-49
2023/10/31 00:59:43;;;;;;;4.88;1.80;;;11.30;99.90;;;;;;5052150;28;20041;-50
2023/10/31 01:02:09;;;;;;;7.47;1.80;;;11.30;99.90;;;;;;5052144;28;20033;-46
2023/10/31 01:04:37;;;;;;;7.07;1.92;;;11.30;99.90;;;;;;5051981;28;20479;-46
2023/10/31 01:07:03;;;;;;;5.70;1.80;;;11.30;99.90;;;;;;5038233;28;20041;-45
2023/10/31 01:09:28;;;;;;;5.97;1.90;;;11.20;99.90;;;;;;5052197;28;20106;-48
2023/10/31 01:11:54;;;;;;;2.33;1.45;;;11.20;99.90;;;;;;5051807;28;20044;-46
2023/10/31 01:14:20;;;;;;;3.47;1.70;;;11.20;99.90;;;;;;5051662;28;20493;-49
2023/10/31 01:16:45;;;;;;;7.97;1.63;;;11.20;99.90;;;;;;5051654;28;20037;-47
2023/10/31 01:19:11;;;;;;;5.30;1.80;;;11.30;99.90;;;;;;5051781;28;20471;-46
2023/10/31 01:21:37;;;;;;;10.52;2.13;;;11.30;99.90;;;;;;5051870;28;20119;-45
2023/10/31 01:24:03;;;;;;;7.70;1.58;;;11.10;99.90;;;;;;5051698;28;20065;-46
2023/10/31 01:26:29;;;;;;;5.80;1.90;;;11.10;99.90;;;;;;5051677;28;20044;-48
2023/10/31 01:28:54;;;;;;;8.25;2.10;;;11.20;99.90;;;;;;5051557;28;20025;-46
2023/10/31 01:31:20;;;;;;;5.20;1.70;;;11.20;99.90;;;;;;5051537;28;20395;-49
2023/10/31 01:33:46;;;;;;;5.47;1.75;;;11.10;99.90;;;;;;5051505;28;20041;-47
2023/10/31 01:36:12;;;;;;;4.47;1.45;;;11.10;99.90;;;;;;5052086;28;20172;-47
2023/10/31 01:38:38;;;;;;;6.07;1.40;;;11.10;99.90;;;;;;5051634;28;20033;-47
2023/10/31 01:41:05;;;;;;;5.15;1.38;;;11.10;99.90;;;;;;5051709;28;20108;-47
2023/10/31 01:43:35;;;;;;;4.22;1.40;;;11.10;99.90;;;;;;5050781;28;20045;-47
2023/10/31 01:46:01;;;;;;;9.95;2.35;;;11.20;99.90;;;;;;5066116;28;20051;-47
2023/10/31 01:48:30;;;;;;;7.00;2.28;;;11.00;99.90;;;;;;5071394;28;20044;-48
2023/10/31 01:50:58;;;;;;;8.60;2.10;;;11.10;99.90;;;;;;5071769;28;20043;-46
2023/10/31 01:53:25;;;;;;;9.25;2.55;;;11.10;99.90;;;;;;5069923;28;20051;-48
2023/10/31 01:55:52;;;;;;;4.40;1.65;;;11.00;99.90;;;;;;5071435;28;20032;-48
2023/10/31 01:58:23;;;;;;;3.97;1.50;;;11.00;99.90;;;;;;5069182;28;20024;-46
2023/10/31 02:00:50;;;;;;;6.22;1.63;;;11.00;99.90;;;;;;5071254;28;20397;-50
2023/10/31 02:03:16;;;;;;;7.22;1.88;;;11.00;99.90;;;;;;5068881;28;20098;-47
2023/10/31 02:05:42;;;;;;;7.50;2.20;;;11.00;99.90;;;;;;5071582;28;20397;-46
2023/10/31 02:08:08;;;;;;;8.20;2.80;;;11.10;99.90;;;;;;5071353;28;20066;-47
2023/10/31 02:10:34;;;;;;;14.13;2.60;;;11.00;99.90;;;;;;5071266;28;20044;-46
2023/10/31 02:13:11;;;;;;;10.82;3.50;;;11.10;99.90;;;;;;5071079;28;20123;-46
2023/10/31 02:15:37;;;;;;;8.55;2.97;;;11.00;99.90;;;;;;5070001;28;20106;-48
2023/10/31 02:18:03;;;;;;;8.18;3.92;;;11.00;99.90;;;;;;5051565;28;20037;-46
2023/10/31 02:20:28;;;;;;;9.70;3.92;;;11.10;99.90;;;;;;5051078;28;20120;-47
2023/10/31 02:22:54;;;;;;;9.60;4.32;;;11.10;99.90;;;;;;5051053;28;20040;-47
2023/10/31 02:25:20;;;;;;;10.70;5.38;;;11.10;99.90;;;;;;5050952;28;20057;-46
2023/10/31 02:27:46;;;;;;;11.70;6.82;;;11.20;99.90;;;;;;5050892;28;20049;-45
2023/10/31 02:30:12;;;;;;;15.43;8.15;;;11.10;99.90;;;;;;5050995;28;20037;-47
2023/10/31 02:32:38;;;;;;;12.88;5.72;;;11.10;99.90;;;;;;5049675;28;20037;-49
2023/10/31 02:35:04;;;;;;;6.72;3.33;;;11.10;99.90;;;;;;5051067;28;20136;-47
2023/10/31 02:37:30;;;;;;;11.35;2.22;;;11.10;99.90;;;;;;5050813;28;20041;-46
2023/10/31 02:39:55;;;;;;;7.93;1.90;;;11.10;99.90;;;;;;5051105;28;20403;-46
2023/10/31 02:42:21;;;;;;;5.47;1.80;;;11.10;99.90;;;;;;5051005;28;20098;-47
2023/10/31 02:44:47;;;;;;;7.10;1.85;;;11.20;99.90;;;;;;5051480;28;20053;-45
2023/10/31 02:47:12;;;;;;;5.28;1.50;;;11.20;99.90;;;;;;5050760;28;20037;-46
2023/10/31 02:49:38;;;;;;;7.88;2.30;;;11.20;99.90;;;;;;5050924;28;20498;-45
2023/10/31 02:52:04;;;;;;;7.38;2.50;;;11.10;99.90;;;;;;5050816;28;20041;-47
2023/10/31 02:54:29;;;;;;;6.88;2.08;;;11.10;99.90;;;;;;5053033;28;20087;-48
2023/10/31 02:56:55;;;;;;;7.95;2.40;;;11.10;99.90;;;;;;5054245;28;20036;-48
2023/10/31 02:59:21;;;;;;;4.22;2.03;;;11.10;99.90;;;;;;5054486;28;20033;-48
2023/10/31 03:01:46;;;;;;;12.57;2.25;;;11.10;99.90;;;;;;5054604;28;20053;-48
2023/10/31 03:04:12;;;;;;;8.80;2.50;;;11.00;99.90;;;;;;5054427;28;20506;-49
2023/10/31 03:06:38;;;;;;;9.02;3.05;;;11.00;99.90;;;;;;5054315;28;20061;-48
2023/10/31 03:09:04;;;;;;;9.07;2.88;;;11.00;99.90;;;;;;5054249;28;20502;-47
2023/10/31 03:11:29;;;;;;;7.28;2.78;;;11.00;99.90;;;;;;5054045;28;20029;-46
2023/10/31 03:13:56;;;;;;;8.20;2.78;;;11.00;99.90;;;;;;5053000;28;20118;-45
2023/10/31 03:16:22;;;;;;;5.70;2.70;;;10.90;99.90;;;;;;5054157;28;20041;-46
2023/10/31 03:18:48;;;;;;;5.78;2.85;;;10.90;99.90;;;;;;5054204;28;20040;-46
2023/10/31 03:21:14;;;;;;;10.10;3.05;;;10.90;99.90;;;;;;5054039;28;20036;-47
2023/10/31 03:23:42;;;;;;;13.98;3.50;;;10.90;99.90;;;;;;5054064;28;20048;-47
2023/10/31 03:26:07;;;;;;;4.07;3.05;;;11.00;99.90;;;;;;5053837;28;20076;-47
2023/10/31 03:28:33;;;;;;;7.80;3.70;;;11.00;99.90;;;;;;5054245;28;20071;-45
2023/10/31 03:30:59;;;;;;;4.80;2.88;;;11.00;99.90;;;;;;5054396;28;20037;-46
2023/10/31 03:33:24;;;;;;;6.88;3.25;;;10.80;99.90;;;;;;5053697;28;20041;-45
2023/10/31 03:35:50;;;;;;;10.13;4.15;;;10.90;99.90;;;;;;5053855;28;20024;-46
2023/10/31 03:38:16;;;;;;;8.90;3.85;;;10.90;99.90;;;;;;5053641;28;20518;-48
2023/10/31 03:40:41;;;;;;;8.63;4.20;;;10.90;99.90;;;;;;5054195;28;20033;-45
2023/10/31 03:43:07;;;;;;;9.13;3.50;;;10.90;99.90;;;;;;5073923;28;20109;-45
2023/10/31 03:45:33;;;;;;;8.30;3.47;;;10.90;99.90;;;;;;5073519;28;20044;-47
2023/10/31 03:47:59;;;;;;;11.63;3.90;;;10.90;99.90;;;;;;5073576;28;20536;-47
2023/10/31 03:50:24;;;;;;;6.53;3.17;;;10.90;99.90;;;;;;5073558;28;20100;-47
2023/10/31 03:52:50;;;;;;;5.85;3.20;;;11.00;99.90;;;;;;5073321;28;20492;-49
2023/10/31 03:55:15;;;;;;;6.80;3.38;;;11.00;99.90;;;;;;5055368;28;20040;-49
2023/10/31 03:57:41;;;;;;;6.13;3.33;;;11.00;99.90;;;;;;5073281;28;20055;-48
2023/10/31 04:00:07;;;;;;;10.85;3.40;;;10.90;99.90;;;;;;5073469;28;20367;-46
2023/10/31 04:02:33;;;;;;;6.95;3.50;;;10.90;99.90;;;;;;5073232;28;20074;-46
2023/10/31 04:04:59;;;;;;;7.57;3.17;;;11.00;99.90;;;;;;5071995;28;20066;-46
2023/10/31 04:07:25;;;;;;;6.90;2.70;;;10.90;99.90;;;;;;5073388;28;20044;-47
2023/10/31 04:09:50;;;;;;;7.38;3.65;;;11.00;99.90;;;;;;5071865;28;20044;-49
2023/10/31 04:12:17;;;;;;;9.68;3.25;;;11.00;99.90;;;;;;5073005;28;20129;-47
2023/10/31 04:14:42;;;;;;;10.02;3.80;;;11.10;99.90;;;;;;5072818;28;20048;-48
2023/10/31 04:17:09;;;;;;;9.00;3.92;;;11.00;99.90;;;;;;5073007;28;20085;-49
2023/10/31 04:19:37;;;;;;;5.03;2.75;;;11.00;99.90;;;;;;5073053;28;20036;-48
2023/10/31 04:22:02;;;;;;;9.80;3.50;;;11.10;99.90;;;;;;5044915;28;20032;-46
2023/10/31 04:24:28;;;;;;;9.27;3.22;;;11.00;99.90;;;;;;5072786;28;20394;-46
2023/10/31 04:26:54;;;;;;;4.72;2.58;;;11.00;99.90;;;;;;5055069;28;20098;-45
2023/10/31 04:29:20;;;;;;;8.25;2.83;;;11.00;99.90;;;;;;5052991;28;20457;-47
2023/10/31 04:31:45;;;;;;;8.85;3.10;;;11.00;99.90;;;;;;5052506;28;20048;-47
2023/10/31 04:34:11;;;;;;;6.28;3.00;;;10.90;99.90;;;;;;5052736;28;20100;-46
2023/10/31 04:36:37;;;;;;;6.88;2.75;;;11.00;99.90;;;;;;5068892;28;20071;-44
2023/10/31 04:39:03;;;;;;;8.38;2.65;;;11.10;99.90;;;;;;5072344;28;20071;-45
2023/10/31 04:41:28;;;;;;;7.80;2.63;;;11.10;99.90;;;;;;5072572;28;20120;-47
2023/10/31 04:43:54;;;;;;;6.03;2.97;;;11.10;99.90;;;;;;5072484;28;20111;-46
2023/10/31 04:46:20;;;;;;;5.68;2.55;;;11.00;99.90;;;;;;5072415;28;20453;-47
2023/10/31 04:48:46;;;;;;;6.22;2.90;;;11.10;99.90;;;;;;5072413;28;20032;-47
2023/10/31 04:51:12;;;;;;;6.15;2.55;;;11.10;99.90;;;;;;5072277;28;20097;-46
2023/10/31 04:53:37;;;;;;;5.95;2.63;;;11.00;99.90;;;;;;5072214;28;20372;-47
2023/10/31 04:56:04;;;;;;;6.47;2.70;;;11.00;99.90;;;;;;5072513;28;20033;-47
2023/10/31 04:58:29;;;;;;;6.63;2.22;;;10.90;99.90;;;;;;5072601;28;20043;-46
2023/10/31 05:00:55;;;;;;;6.63;2.00;;;11.00;99.90;;;;;;5072132;28;20394;-46
2023/10/31 05:03:21;;;;;;;4.05;1.70;;;11.00;99.90;;;;;;5070732;28;20134;-45
2023/10/31 05:05:46;;;;;;;4.93;1.70;;;11.10;99.90;;;;;;5072214;28;20051;-48
2023/10/31 05:08:12;;;;;;;3.85;1.85;;;11.00;99.90;;;;;;5071910;28;20041;-46
2023/10/31 05:10:38;;;;;;;4.07;1.30;;;11.00;99.90;;;;;;5071939;28;20049;-47
2023/10/31 05:13:03;;;;;;;4.60;1.63;;;11.00;99.90;;;;;;5071673;28;20068;-48
2023/10/31 05:15:29;;;;;;;3.15;1.85;;;11.10;99.90;;;;;;5071716;28;20063;-47
2023/10/31 05:17:55;;;;;;;5.38;1.33;;;11.00;99.90;;;;;;5071446;28;20040;-46
2023/10/31 05:20:21;;;;;;;1.92;1.08;;;11.00;99.90;;;;;;5071784;28;20044;-46
2023/10/31 05:22:46;;;;;;;2.85;0.90;;;11.10;99.90;;;;;;5071757;28;20048;-45
2023/10/31 05:25:12;;;;;;;2.92;0.80;;;11.00;99.90;;;;;;5067786;28;20426;-47
2023/10/31 05:27:39;;;;;;;2.20;0.80;;;11.00;99.90;;;;;;5051785;28;20044;-47
2023/10/31 05:30:05;;;;;;;1.55;0.60;;;11.00;99.90;;;;;;5051558;28;20048;-46
2023/10/31 05:32:31;;;;;;;8.07;1.17;;;11.00;99.90;;;;;;5058181;28;20123;-48
2023/10/31 05:34:56;;;;;;;2.45;0.80;;;11.00;99.90;;;;;;5072088;28;20119;-46
2023/10/31 05:37:22;;;;;;;2.40;0.75;;;10.90;99.90;;;;;;5071515;28;20115;-47
2023/10/31 05:39:48;;;;;;;6.38;1.25;;;10.90;99.90;;;;;;5072033;28;20036;-46
2023/10/31 05:42:14;;;;;;;3.30;0.95;;;10.90;99.90;;;;;;5068513;28;20047;-48
2023/10/31 05:44:40;;;;;;;1.60;0.73;;;10.90;99.90;;;;;;5071298;28;20072;-46
2023/10/31 05:47:05;;;;;;;2.15;0.95;;;10.90;99.90;;;;;;5071738;28;20079;-47
2023/10/31 05:49:31;;;;;;;2.95;0.77;;;11.00;99.90;;;;;;5071439;28;20072;-46
2023/10/31 05:51:57;;;;;;;2.30;0.82;;;10.90;99.90;;;;;;5071344;28;20127;-47
2023/10/31 05:54:22;;;;;;;1.13;0.77;;;10.90;99.90;;;;;;5071499;28;20047;-48
2023/10/31 05:56:48;;;;;;;3.55;0.70;;;10.90;99.90;;;;;;5071517;28;20441;-45
2023/10/31 05:59:14;;;;;;;4.60;1.27;;;10.90;99.90;;;;;;5064050;28;20475;-48
2023/10/31 06:01:40;;;;;;;2.42;0.75;;;10.90;99.90;;;;;;5071269;28;20043;-46
2023/10/31 06:04:05;;;;;;;1.77;0.80;;;10.90;99.90;;;;;;5063941;28;20037;-47
2023/10/31 06:06:33;;;;;;;3.28;0.90;;;11.00;99.90;;;;;;5071100;28;20037;-48
2023/10/31 06:08:59;;;;;;;1.80;0.95;;;10.90;99.90;;;;;;5071538;28;20544;-47
2023/10/31 06:11:25;;;;;;;1.88;1.00;;;10.90;99.90;;;;;;5071101;28;20563;-46
2023/10/31 06:13:51;;;;;;;1.25;0.80;;;11.00;99.90;;;;;;5071134;28;20087;-48
2023/10/31 06:16:16;;;;;;;3.53;0.80;;;10.90;99.90;;;;;;5071364;28;20084;-47
2023/10/31 06:18:42;;;;;;;2.70;1.20;;;10.90;99.90;;;;;;5071026;28;20032;-47
2023/10/31 06:21:10;;;;;;;1.48;1.00;;;11.00;99.90;;;;;;5069935;28;20028;-46
2023/10/31 06:23:38;;;;;;;6.88;1.10;;;10.90;99.90;;;;;;5071074;28;20040;-48
2023/10/31 06:26:04;;;;;;;3.95;1.23;;;11.00;99.90;;;;;;5060529;28;20037;-46
2023/10/31 06:28:30;;;;;;;3.05;1.30;;;11.00;99.90;;;;;;5051714;28;20048;-48
2023/10/31 06:30:55;;;;;;;5.65;1.50;;;11.00;99.90;;;;;;5053766;28;20041;-49
2023/10/31 06:33:21;;;;;;;3.60;1.25;;;11.00;99.90;;;;;;5054948;28;20056;-47
2023/10/31 06:35:47;;;;;;;1.58;1.15;;;11.00;99.90;;;;;;5055060;28;20095;-46
2023/10/31 06:38:13;;;;;;;6.07;1.70;;;11.10;99.90;;;;;;5054692;28;20167;-48
2023/10/31 06:40:38;;;;;;;3.10;1.45;;;11.10;99.90;;;;;;5054900;28;20037;-48
2023/10/31 06:43:04;;;;;;;3.05;1.55;;;11.00;99.90;;;;;;5054741;28;20041;-47
2023/10/31 06:45:30;;;;;;;3.85;1.60;;;11.00;99.90;;;;;;5054686;28;20487;-47
2023/10/31 06:47:55;;;;;;;2.90;1.58;;;11.00;99.90;;;;;;5054793;28;20036;-47
2023/10/31 06:50:22;;;;;;;4.03;1.50;;;11.00;99.90;;;;;;5054586;28;20479;-47
2023/10/31 06:52:47;;;;;;;4.60;1.92;;;11.10;99.90;;;;;;5054572;28;20079;-47
2023/10/31 06:55:13;;;;;;;4.47;1.85;;;11.10;99.90;;;;;;5054746;28;20065;-45
2023/10/31 06:57:39;;;;;;;3.95;1.75;;;11.10;99.90;;;;;;5054323;28;20033;-46
2023/10/31 07:00:08;;;;;;;6.30;2.15;;;11.20;99.90;;;;;;5054565;28;20033;-47
2023/10/31 07:02:35;;;;;;;11.38;2.17;;;11.10;99.90;;;;;;5054106;28;20052;-46
2023/10/31 07:05:01;;;;;;;5.00;1.85;;;11.20;99.90;;;;;;5054399;28;20041;-47
2023/10/31 07:07:27;;;;;;;8.38;1.90;;;11.10;99.90;;;;;;5054453;28;20033;-47
2023/10/31 07:09:52;;;;;;;9.45;2.20;;;11.10;99.90;;;;;;5053169;28;20110;-49
2023/10/31 07:12:18;;;;;;;4.93;2.20;;;11.20;99.90;;;;;;5054226;28;20041;-46
2023/10/31 07:14:44;;;;;;;5.30;2.03;;;11.10;99.90;;;;;;5052743;28;20483;-46
2023/10/31 07:17:09;;;;;;;6.28;2.30;;;11.10;99.90;;;;;;5054211;28;20116;-47
2023/10/31 07:19:35;;;;;;;6.10;2.17;;;11.00;99.90;;;;;;5053980;28;20538;-47
2023/10/31 07:22:01;;;;;;;7.55;2.20;;;11.10;99.90;;;;;;5052937;28;20044;-47
2023/10/31 07:24:27;;;;;;;5.10;2.47;;;11.10;99.90;;;;;;5054255;28;20461;-47
2023/10/31 07:26:54;;;;;;;4.50;2.03;;;11.10;99.90;;;;;;5054282;28;20400;-46
2023/10/31 07:29:20;;;;;;;6.07;2.40;;;11.20;99.90;;;;;;5053936;28;20028;-46
2023/10/31 07:31:46;;;;;;;5.03;2.45;;;11.20;99.90;;;;;;5053617;28;20120;-46
2023/10/31 07:34:12;;;;;;;3.92;2.90;;;11.10;99.90;;;;;;5067998;28;20079;-47
2023/10/31 07:36:39;;;;;;;4.80;2.30;;;11.10;99.90;;;;;;5072432;28;20056;-47
2023/10/31 07:39:05;;;;;;;8.75;2.50;;;11.10;99.90;;;;;;5061282;28;20112;-48
2023/10/31 07:41:30;;;;;;;5.53;2.05;;;11.10;99.90;;;;;;5072748;28;20124;-48
2023/10/31 07:43:56;;;;;;;5.00;1.83;;;11.10;99.90;;;;;;5073641;28;20040;-47
2023/10/31 07:46:23;;;;;;;7.22;1.73;;;11.20;99.90;;;;;;5073634;28;20120;-46
2023/10/31 07:48:49;;;;;;;6.53;2.10;;;11.30;99.90;;;;;;5072136;28;20036;-46
2023/10/31 07:51:14;;;;;;;3.78;1.30;;;11.30;99.90;;;;;;5062273;28;20036;-46
2023/10/31 07:53:41;;;;;;;8.05;1.50;;;11.30;99.90;;;;;;5072163;28;20047;-45
2023/10/31 07:56:23;;;;;;;3.83;1.50;;;11.30;99.90;;;;;;5073311;28;20039;-49
2023/10/31 07:58:49;;;;;;;6.85;1.60;;;11.30;99.90;;;;;;5072098;28;20115;-47
2023/10/31 08:01:17;;;;;;;6.85;1.63;;;11.40;99.90;;;;;;5073182;28;20028;-47
2023/10/31 08:03:43;;;;;;;4.68;1.63;;;11.40;99.90;;;;;;5072969;28;20040;-50
2023/10/31 08:06:11;;;;;;;3.92;1.15;;;11.40;99.90;;;;;;5072935;28;20098;-48
2023/10/31 08:08:36;;;;;;;3.20;1.10;;;11.50;99.90;;;;;;5073279;28;20046;-48
2023/10/31 08:11:03;;;;;;;9.93;1.20;;;11.40;99.90;;;;;;5068499;28;20041;-48
2023/10/31 08:13:29;;;;;;;4.97;1.10;;;11.50;99.90;;;;;;5072869;28;20041;-48
2023/10/31 08:15:55;;;;;;;8.60;1.00;;;11.50;99.90;;;;;;5071975;28;20044;-46
2023/10/31 08:18:22;;;;;;;4.57;0.93;;;11.60;99.90;;;;;;5073292;28;20590;-45
2023/10/31 08:20:50;;;;;;;5.22;1.15;;;11.60;99.90;;;;;;5072133;28;20863;-47
2023/10/31 08:23:17;;;;;;;3.65;0.98;;;11.70;99.90;;;;;;5072854;28;20115;-45
2023/10/31 08:25:43;;;;;;;3.95;1.23;;;11.60;99.90;;;;;;5065233;28;20045;-46
2023/10/31 08:28:08;;;;;;;4.40;1.40;;;11.70;99.90;;;;;;5051679;28;20040;-47
2023/10/31 08:30:35;;;;;;;6.78;1.38;;;11.60;99.90;;;;;;5052674;28;20106;-46
2023/10/31 08:33:01;;;;;;;4.90;0.88;;;11.70;99.90;;;;;;5051601;28;20039;-46
2023/10/31 08:35:27;;;;;;;5.72;0.88;;;11.80;99.90;;;;;;5052648;28;20098;-46
2023/10/31 08:37:53;;;;;;;4.55;0.98;;;11.70;99.90;;;;;;5051495;28;20074;-47
2023/10/31 08:40:19;;;;;;;4.82;0.80;;;11.70;99.90;;;;;;5052535;28;20060;-45
2023/10/31 08:42:45;;;;;;;4.93;0.93;;;11.70;99.90;;;;;;5052598;28;20395;-47
2023/10/31 08:45:11;;;;;;;4.18;1.05;;;11.70;99.90;;;;;;5052514;28;20041;-48
2023/10/31 08:47:36;;;;;;;5.10;1.60;;;11.80;99.90;;;;;;5052443;28;20587;-46
2023/10/31 08:50:03;;;;;;;11.40;2.38;;;11.80;99.90;;;;;;5052541;28;20068;-45
2023/10/31 08:52:28;;;;;;;14.38;3.13;;;11.90;99.90;;;;;;5050617;28;20033;-46
2023/10/31 08:54:54;;;;;;;14.55;2.30;;;12.00;99.90;;;;;;5050976;28;20447;-50
2023/10/31 08:57:20;;;;;;;13.85;2.10;;;12.10;99.90;;;;;;5052142;28;20044;-46
2023/10/31 08:59:45;;;;;;;9.90;1.33;;;12.10;99.90;;;;;;5052240;28;20048;-48
2023/10/31 09:02:11;;;;;;;9.23;1.30;;;12.00;99.90;;;;;;5052250;28;20037;-46
2023/10/31 09:04:36;;;;;;;12.88;1.30;;;11.90;99.90;;;;;;5052257;28;20114;-47
2023/10/31 09:07:02;;;;;;;10.57;1.30;;;12.00;99.90;;;;;;5052186;28;20037;-47
2023/10/31 09:09:28;;;;;;;9.50;1.48;;;11.90;99.90;;;;;;5051936;28;20117;-46
2023/10/31 09:11:54;;;;;;;6.38;1.63;;;11.90;99.90;;;;;;5052225;28;20550;-46
2023/10/31 09:14:20;;;;;;;6.25;0.95;;;11.90;99.90;;;;;;5051720;28;20592;-47
2023/10/31 09:16:45;;;;;;;12.75;1.65;;;11.90;99.90;;;;;;5052080;28;20102;-48
2023/10/31 09:19:11;;;;;;;6.25;1.08;;;11.90;99.90;;;;;;5050399;28;20033;-47
2023/10/31 09:21:37;;;;;;;6.93;1.23;;;11.90;99.90;;;;;;5051901;28;20045;-47
2023/10/31 09:24:03;;;;;;;4.32;1.02;;;11.80;99.90;;;;;;5051883;28;20045;-46
2023/10/31 09:26:29;;;;;;;6.00;0.80;;;11.80;99.90;;;;;;5050151;28;20049;-47
2023/10/31 09:28:55;;;;;;;5.18;0.80;;;11.90;99.90;;;;;;5059814;28;20044;-49
2023/10/31 09:31:21;;;;;;;5.55;0.77;;;11.90;99.90;;;;;;5071874;28;20028;-51
2023/10/31 09:33:47;;;;;;;5.95;0.57;;;11.80;99.90;;;;;;5071548;28;20068;-47
2023/10/31 09:36:14;;;;;;;5.13;0.80;;;11.80;99.90;;;;;;5070568;28;20044;-47
2023/10/31 09:38:40;;;;;;;7.00;0.77;;;11.80;99.90;;;;;;5070416;28;20028;-47
2023/10/31 09:41:06;;;;;;;4.25;0.90;;;11.70;99.90;;;;;;5071450;28;20505;-47
2023/10/31 09:43:32;;;;;;;4.55;0.80;;;11.70;99.90;;;;;;5071444;28;20052;-47
2023/10/31 09:46:00;;;;;;;6.18;0.75;;;11.80;99.90;;;;;;5071781;28;20051;-46
2023/10/31 09:48:26;;;;;;;4.55;0.82;;;11.80;99.90;;;;;;5071389;28;20049;-46
2023/10/31 09:50:53;;;;;;;3.67;1.13;;;11.80;99.90;;;;;;5071636;28;20033;-47
2023/10/31 09:53:19;;;;;;;6.32;0.70;;;11.80;99.90;;;;;;5071803;28;20048;-46
2023/10/31 09:55:48;;;;;;;3.22;0.80;;;11.90;99.90;;;;;;5070280;28;20036;-49
2023/10/31 09:58:14;;;;;;;;;;;11.90;99.90;;;;;;5072068;28;20086;-48
2023/10/31 10:00:40;;;;;;;8.85;1.02;;;12.00;99.90;;;;;;5071442;28;20324;-46
2023/10/31 10:03:09;;;;;;;3.88;0.82;;;12.00;99.90;;;;;;5071730;28;20040;-46
2023/10/31 10:05:35;;;;;;;;;;;12.10;99.90;;;;;;5075885;28;20429;-48
2023/10/31 10:08:01;;;;;;;9.05;1.08;;;12.30;99.90;;;;;;5075716;28;19920;-47
2023/10/31 10:10:27;;;;;;;3.03;0.70;;;12.20;99.90;;;;;;5075241;28;20046;-46
2023/10/31 10:12:53;;;;;;;5.72;1.05;;;12.30;99.90;;;;;;5075562;28;20102;-47
2023/10/31 10:15:19;;;;;;;4.28;0.63;;;12.30;99.90;;;;;;5075146;28;20052;-45
2023/10/31 10:17:51;;;;;;;5.13;0.82;;;12.30;99.90;;;;;;5075258;28;20044;-47
2023/10/31 10:20:18;;;;;;;5.15;1.00;;;12.30;99.90;;;;;;5075386;28;20572;-45
2023/10/31 10:22:44;;;;;;;4.85;0.93;;;12.30;99.90;;;;;;5075077;28;20064;-45
2023/10/31 10:25:14;;;;;;;5.95;0.88;;;12.30;99.90;;;;;;5071654;28;20562;-49
2023/10/31 10:27:40;;;;;;;4.68;0.90;;;12.40;99.90;;;;;;5053935;28;20048;-50
2023/10/31 10:30:08;;;;;;;4.20;0.60;;;12.50;99.90;;;;;;5053676;28;20445;-46
2023/10/31 10:32:35;;;;;;;5.25;0.90;;;12.50;99.90;;;;;;5054967;28;20051;-48
2023/10/31 10:35:00;;;;;;;4.90;0.77;;;12.60;99.90;;;;;;5054790;28;20475;-48
2023/10/31 10:37:30;;;;;;;3.45;0.57;;;12.60;99.90;;;;;;5054919;28;20110;-46
2023/10/31 10:39:59;;;;;;;14.90;1.15;;;12.60;99.90;;;;;;5055124;28;20139;-48
2023/10/31 10:42:32;;;;;;;;;;;12.70;99.90;;;;;;5055337;28;20068;-49
2023/10/31 10:45:03;;;;;;;4.65;1.00;;;12.70;99.90;;;;;;5054796;28;20383;-47
2023/10/31 10:47:31;;;;;;;3.67;0.80;;;12.70;99.90;;;;;;5054604;28;20403;-47
2023/10/31 10:50:01;;;;;;;6.40;0.90;;;12.70;99.90;;;;;;5055065;28;20447;-46
2023/10/31 10:52:45;;;;;;;3.92;0.60;;;12.70;99.90;;;;;;5054592;28;20073;-48
2023/10/31 10:55:19;;;;;;;3.95;0.65;;;12.70;99.90;;;;;;5054712;28;20036;-46
2023/10/31 10:58:01;;;;;;;3.15;0.60;;;12.60;99.90;;;;;;5053227;28;20037;-47
2023/10/31 11:00:27;;;;;;;9.93;0.98;;;12.70;99.90;;;;;;5054338;28;20040;-47
2023/10/31 11:02:54;;;;;;;4.22;0.50;;;12.60;99.90;;;;;;5054544;28;20037;-46
2023/10/31 11:05:20;;;;;;;3.85;0.82;;;12.60;99.90;;;;;;5054465;28;20059;-48
2023/10/31 11:07:47;;;;;;;5.88;0.80;;;12.70;99.90;;;;;;5054585;28;20047;-47
2023/10/31 11:10:14;;;;;;;4.90;0.75;;;12.80;99.90;;;;;;5054646;28;20041;-48
2023/10/31 11:12:40;;;;;;;4.05;0.70;;;12.90;99.90;;;;;;5054169;28;20141;-46
2023/10/31 11:15:08;;;;;;;4.10;0.70;;;13.00;99.90;;;;;;5052741;28;20123;-47
2023/10/31 11:17:37;;;;;;;4.70;0.70;;;13.20;99.90;;;;;;5054202;28;20045;-47
2023/10/31 11:20:03;;;;;;;;;;;13.30;99.90;;;;;;5053601;28;20036;-46
2023/10/31 11:22:39;;;;;;;3.42;1.10;;;13.20;99.90;;;;;;5054076;28;19923;-48
2023/10/31 11:25:07;;;;;;;4.78;1.00;;;13.20;99.90;;;;;;5042026;28;20041;-46
2023/10/31 11:27:35;;;;;;;5.47;1.15;;;13.20;99.90;;;;;;5062671;28;20557;-47
2023/10/31 11:30:01;;;;;;;10.57;1.27;;;13.20;99.90;;;;;;5043511;28;20108;-47
2023/10/31 11:32:27;;;;;;;3.45;0.80;;;13.30;99.90;;;;;;5064122;28;20152;-49
2023/10/31 11:34:52;;;;;;;7.30;0.98;;;13.30;99.90;;;;;;5040191;28;20036;-47
2023/10/31 11:37:19;;;;;;;4.72;1.00;;;13.20;99.90;;;;;;5044739;28;20102;-47
2023/10/31 11:40:13;;;;;;;5.68;1.25;;;13.40;99.90;;;;;;5064226;28;20041;-47
2023/10/31 11:42:41;;;;;;;6.78;0.93;;;13.50;99.90;;;;;;5038091;28;20048;-48
2023/10/31 11:45:10;;;;;;;4.15;0.90;;;13.60;99.90;;;;;;5044195;28;20056;-47
2023/10/31 11:47:50;;;;;;;6.65;1.30;;;13.60;99.90;;;;;;5048212;28;20099;-48
2023/10/31 11:50:16;;;;;;;6.35;0.90;;;13.70;99.90;;;;;;5043091;28;20116;-50
2023/10/31 11:52:42;;;;;;;5.75;0.95;;;13.70;99.90;;;;;;5047629;28;20077;-48
2023/10/31 11:55:12;;;;;;;2.78;1.00;;;13.70;99.90;;;;;;5033680;28;20033;-46
2023/10/31 11:57:39;;;;;;;8.57;1.10;;;13.60;99.90;;;;;;5036812;28;20041;-48
2023/10/31 12:00:05;;;;;;;8.30;1.70;;;13.50;99.90;;;;;;5044709;28;20064;-46
2023/10/31 12:02:31;;;;;;;7.10;1.20;;;13.40;99.90;;;;;;5038574;28;20047;-47
2023/10/31 12:05:10;;;;;;;10.70;1.63;;;13.40;99.90;;;;;;5049861;28;20036;-46
2023/10/31 12:07:45;;;;;;;8.05;1.40;;;13.30;99.90;;;;;;5036515;28;20092;-49
2023/10/31 12:10:12;;;;;;;4.68;1.13;;;13.40;99.90;;;;;;5040357;28;20475;-47
2023/10/31 12:12:38;;;;;;;9.00;1.20;;;13.30;99.90;;;;;;5038013;28;20515;-50
2023/10/31 12:15:10;;;;;;;5.15;1.00;;;13.30;99.90;;;;;;5051615;28;20049;-48
2023/10/31 12:17:36;;;;;;;9.73;1.17;;;13.40;99.90;;;;;;5044655;28;20033;-46
2023/10/31 12:20:07;;;;;;;7.20;1.23;;;13.40;99.90;;;;;;5059833;28;20071;-46
2023/10/31 12:22:33;;;;;;;6.43;1.27;;;13.40;99.90;;;;;;5073238;28;20055;-46
2023/10/31 12:25:06;;;;;;;8.30;1.02;;;13.40;99.90;;;;;;5071080;28;20044;-46
2023/10/31 12:27:43;;;;;;;5.70;1.23;;;13.40;99.90;;;;;;5052376;28;20454;-46
2023/10/31 12:30:09;;;;;;;11.88;1.05;;;13.30;99.90;;;;;;5052580;28;20116;-49
2023/10/31 12:32:35;;;;;;;3.75;1.23;;;13.30;99.90;;;;;;5041742;28;20071;-50
2023/10/31 12:35:00;;;;;;;12.27;1.77;;;13.20;99.90;;;;;;5051198;28;20456;-47
2023/10/31 12:37:26;;;;;;;4.50;1.02;;;13.20;99.90;;;;;;5051389;28;20037;-49
2023/10/31 12:39:52;;;;;;;7.28;1.23;;;13.20;99.90;;;;;;5034992;28;20492;-46
2023/10/31 12:42:19;;;;;;;6.50;1.35;;;13.10;99.90;;;;;;5036992;28;20033;-46
2023/10/31 12:44:44;;;;;;;5.47;1.45;;;12.90;99.90;;;;;;5041768;28;20037;-49